sensor_id;sensor_type;location;lat;lon;timestamp;temperature;humidity
41678;DHT22;27364;49.026;8.712;2022-07-23T00:01:25;23.10;99.90
41678;DHT22;27364;49.026;8.712;2022-07-23T00:03:52;23.10;99.90
41678;DHT22;27364;49.026;8.712;2022-07-23T00:06:19;23.20;99.90
41678;DHT22;27364;49.026;8.712;2022-07-23T00:08:45;23.20;99.90
41678;DHT22;27364;49.026;8.712;2022-07-23T00:11:11;23.20;99.90
41678;DHT22;27364;49.026;8.712;2022-07-23T00:13:37;23.20;99.90
41678;DHT22;27364;49.026;8.712;2022-07-23T00:16:03;23.20;99.90
41678;DHT22;27364;49.026;8.712;2022-07-23T00:18:28;23.30;99.90
41678;DHT22;27364;49.026;8.712;2022-07-23T00:20:54;23.30;99.90
41678;DHT22;27364;49.026;8.712;2022-07-23T00:23:19;23.30;99.90
41678;DHT22;27364;49.026;8.712;2022-07-23T00:25:45;23.30;99.90
41678;DHT22;27364;49.026;8.712;2022-07-23T00:28:11;23.20;99.90
41678;DHT22;27364;49.026;8.712;2022-07-23T00:30:37;23.20;99.90
41678;DHT22;27364;49.026;8.712;2022-07-23T00:33:05;23.30;99.90
41678;DHT22;27364;49.026;8.712;2022-07-23T00:35:36;23.20;99.90
41678;DHT22;27364;49.026;8.712;2022-07-23T00:38:03;23.20;99.90
41678;DHT22;27364;49.026;8.712;2022-07-23T00:40:30;23.10;99.90
41678;DHT22;27364;49.026;8.712;2022-07-23T00:42:56;23.10;99.90
41678;DHT22;27364;49.026;8.712;2022-07-23T00:45:22;23.10;99.90
41678;DHT22;27364;49.026;8.712;2022-07-23T00:47:49;23.10;99.90
41678;DHT22;27364;49.026;8.712;2022-07-23T00:50:14;23.10;99.90
41678;DHT22;27364;49.026;8.712;2022-07-23T00:52:40;23.00;99.90
41678;DHT22;27364;49.026;8.712;2022-07-23T00:55:08;23.00;99.90
41678;DHT22;27364;49.026;8.712;2022-07-23T00:57:34;22.90;99.90
41678;DHT22;27364;49.026;8.712;2022-07-23T01:00:00;22.90;99.90
41678;DHT22;27364;49.026;8.712;2022-07-23T01:02:26;22.80;99.90
41678;DHT22;27364;49.026;8.712;2022-07-23T01:04:52;22.80;99.90
41678;DHT22;27364;49.026;8.712;2022-07-23T01:07:18;22.80;99.90
41678;DHT22;27364;49.026;8.712;2022-07-23T01:09:45;22.80;99.90
41678;DHT22;27364;49.026;8.712;2022-07-23T01:12:12;22.80;99.90
41678;DHT22;27364;49.026;8.712;2022-07-23T01:14:38;22.80;99.90
41678;DHT22;27364;49.026;8.712;2022-07-23T01:17:04;22.90;99.90
41678;DHT22;27364;49.026;8.712;2022-07-23T01:19:29;22.80;99.90
41678;DHT22;27364;49.026;8.712;2022-07-23T01:21:57;22.80;99.90
41678;DHT22;27364;49.026;8.712;2022-07-23T01:24:23;22.80;99.90
41678;DHT22;27364;49.026;8.712;2022-07-23T01:26:48;22.80;99.90
41678;DHT22;27364;49.026;8.712;2022-07-23T01:29:15;22.80;99.90
41678;DHT22;27364;49.026;8.712;2022-07-23T01:31:41;22.90;99.90
41678;DHT22;27364;49.026;8.712;2022-07-23T01:34:07;22.90;99.90
41678;DHT22;27364;49.026;8.712;2022-07-23T01:36:34;22.90;99.90
41678;DHT22;27364;49.026;8.712;2022-07-23T01:38:59;23.00;99.90
41678;DHT22;27364;49.026;8.712;2022-07-23T01:41:25;23.00;99.90
41678;DHT22;27364;49.026;8.712;2022-07-23T01:43:51;23.00;99.90
41678;DHT22;27364;49.026;8.712;2022-07-23T01:46:16;22.90;99.90
41678;DHT22;27364;49.026;8.712;2022-07-23T01:48:42;22.90;99.90
41678;DHT22;27364;49.026;8.712;2022-07-23T01:51:07;22.90;99.90
41678;DHT22;27364;49.026;8.712;2022-07-23T01:53:33;22.90;99.90
41678;DHT22;27364;49.026;8.712;2022-07-23T01:55:59;22.90;99.90
41678;DHT22;27364;49.026;8.712;2022-07-23T01:58:26;22.90;99.90
41678;DHT22;27364;49.026;8.712;2022-07-23T02:00:52;23.00;99.90
41678;DHT22;27364;49.026;8.712;2022-07-23T02:03:17;22.90;99.90
41678;DHT22;27364;49.026;8.712;2022-07-23T02:05:43;22.90;99.90
41678;DHT22;27364;49.026;8.712;2022-07-23T02:08:08;22.90;99.90
41678;DHT22;27364;49.026;8.712;2022-07-23T02:10:34;22.90;99.90
41678;DHT22;27364;49.026;8.712;2022-07-23T02:12:59;22.90;99.90
41678;DHT22;27364;49.026;8.712;2022-07-23T02:15:25;22.90;99.90
41678;DHT22;27364;49.026;8.712;2022-07-23T02:17:51;22.80;99.90
41678;DHT22;27364;49.026;8.712;2022-07-23T02:20:16;22.80;99.90
41678;DHT22;27364;49.026;8.712;2022-07-23T02:22:42;22.80;99.90
41678;DHT22;27364;49.026;8.712;2022-07-23T02:25:08;22.80;99.90
41678;DHT22;27364;49.026;8.712;2022-07-23T02:27:34;22.70;99.90
41678;DHT22;27364;49.026;8.712;2022-07-23T02:30:02;22.70;99.90
41678;DHT22;27364;49.026;8.712;2022-07-23T02:32:28;22.70;99.90
41678;DHT22;27364;49.026;8.712;2022-07-23T02:34:53;22.60;99.90
41678;DHT22;27364;49.026;8.712;2022-07-23T02:37:19;22.60;99.90
41678;DHT22;27364;49.026;8.712;2022-07-23T02:39:44;22.50;99.90
41678;DHT22;27364;49.026;8.712;2022-07-23T02:42:10;22.50;99.90
41678;DHT22;27364;49.026;8.712;2022-07-23T02:44:36;22.40;99.90
41678;DHT22;27364;49.026;8.712;2022-07-23T02:47:02;22.40;99.90
41678;DHT22;27364;49.026;8.712;2022-07-23T02:49:28;22.40;99.90
41678;DHT22;27364;49.026;8.712;2022-07-23T02:51:53;22.30;99.90
41678;DHT22;27364;49.026;8.712;2022-07-23T02:54:19;22.30;99.90
41678;DHT22;27364;49.026;8.712;2022-07-23T02:56:45;22.30;99.90
41678;DHT22;27364;49.026;8.712;2022-07-23T02:59:10;22.30;99.90
41678;DHT22;27364;49.026;8.712;2022-07-23T03:01:36;22.30;99.90
41678;DHT22;27364;49.026;8.712;2022-07-23T03:04:01;22.20;99.90
41678;DHT22;27364;49.026;8.712;2022-07-23T03:06:27;22.30;99.90
41678;DHT22;27364;49.026;8.712;2022-07-23T03:08:52;22.20;99.90
41678;DHT22;27364;49.026;8.712;2022-07-23T03:11:18;22.20;99.90
41678;DHT22;27364;49.026;8.712;2022-07-23T03:13:44;22.20;99.90
41678;DHT22;27364;49.026;8.712;2022-07-23T03:16:09;22.20;99.90
41678;DHT22;27364;49.026;8.712;2022-07-23T03:18:35;22.20;99.90
41678;DHT22;27364;49.026;8.712;2022-07-23T03:21:01;22.20;99.90
41678;DHT22;27364;49.026;8.712;2022-07-23T03:23:26;22.20;99.90
41678;DHT22;27364;49.026;8.712;2022-07-23T03:25:52;22.10;99.90
41678;DHT22;27364;49.026;8.712;2022-07-23T03:28:18;22.00;99.90
41678;DHT22;27364;49.026;8.712;2022-07-23T03:30:44;22.00;99.90
41678;DHT22;27364;49.026;8.712;2022-07-23T03:33:12;22.00;99.90
41678;DHT22;27364;49.026;8.712;2022-07-23T03:35:38;21.90;99.90
41678;DHT22;27364;49.026;8.712;2022-07-23T03:38:04;22.00;99.90
41678;DHT22;27364;49.026;8.712;2022-07-23T03:40:29;21.90;99.90
41678;DHT22;27364;49.026;8.712;2022-07-23T03:42:55;21.90;99.90
41678;DHT22;27364;49.026;8.712;2022-07-23T03:45:20;21.80;99.90
41678;DHT22;27364;49.026;8.712;2022-07-23T03:47:46;21.90;99.90
41678;DHT22;27364;49.026;8.712;2022-07-23T03:50:11;21.90;99.90
41678;DHT22;27364;49.026;8.712;2022-07-23T03:52:37;21.90;99.90
41678;DHT22;27364;49.026;8.712;2022-07-23T03:55:03;21.80;99.90
41678;DHT22;27364;49.026;8.712;2022-07-23T03:57:29;21.80;99.90
41678;DHT22;27364;49.026;8.712;2022-07-23T03:59:54;21.70;99.90
41678;DHT22;27364;49.026;8.712;2022-07-23T04:02:20;21.60;99.90
41678;DHT22;27364;49.026;8.712;2022-07-23T04:04:46;21.60;99.90
41678;DHT22;27364;49.026;8.712;2022-07-23T04:07:12;21.50;99.90
41678;DHT22;27364;49.026;8.712;2022-07-23T04:09:39;21.40;99.90
41678;DHT22;27364;49.026;8.712;2022-07-23T04:12:08;21.40;99.90
41678;DHT22;27364;49.026;8.712;2022-07-23T04:14:34;21.40;99.90
41678;DHT22;27364;49.026;8.712;2022-07-23T04:16:59;21.40;99.90
41678;DHT22;27364;49.026;8.712;2022-07-23T04:19:25;21.30;99.90
41678;DHT22;27364;49.026;8.712;2022-07-23T04:21:51;21.30;99.90
41678;DHT22;27364;49.026;8.712;2022-07-23T04:24:17;21.30;99.90
41678;DHT22;27364;49.026;8.712;2022-07-23T04:26:42;21.20;99.90
41678;DHT22;27364;49.026;8.712;2022-07-23T04:29:08;21.10;99.90
41678;DHT22;27364;49.026;8.712;2022-07-23T04:31:34;21.10;99.90
41678;DHT22;27364;49.026;8.712;2022-07-23T04:33:59;21.00;99.90
41678;DHT22;27364;49.026;8.712;2022-07-23T04:36:25;21.00;99.90
41678;DHT22;27364;49.026;8.712;2022-07-23T04:38:50;21.00;99.90
41678;DHT22;27364;49.026;8.712;2022-07-23T04:41:16;20.90;99.90
41678;DHT22;27364;49.026;8.712;2022-07-23T04:43:41;21.00;99.90
41678;DHT22;27364;49.026;8.712;2022-07-23T04:46:07;21.00;99.90
41678;DHT22;27364;49.026;8.712;2022-07-23T04:48:33;21.00;99.90
41678;DHT22;27364;49.026;8.712;2022-07-23T04:50:58;21.10;99.90
41678;DHT22;27364;49.026;8.712;2022-07-23T04:53:24;21.10;99.90
41678;DHT22;27364;49.026;8.712;2022-07-23T04:55:49;21.10;99.90
41678;DHT22;27364;49.026;8.712;2022-07-23T04:58:15;21.20;99.90
41678;DHT22;27364;49.026;8.712;2022-07-23T05:00:40;21.20;99.90
41678;DHT22;27364;49.026;8.712;2022-07-23T05:03:06;21.20;99.90
41678;DHT22;27364;49.026;8.712;2022-07-23T05:05:32;21.20;99.90
41678;DHT22;27364;49.026;8.712;2022-07-23T05:07:57;21.20;99.90
41678;DHT22;27364;49.026;8.712;2022-07-23T05:10:23;21.20;99.90
41678;DHT22;27364;49.026;8.712;2022-07-23T05:12:49;21.20;99.90
41678;DHT22;27364;49.026;8.712;2022-07-23T05:15:14;21.20;99.90
41678;DHT22;27364;49.026;8.712;2022-07-23T05:17:40;21.20;99.90
41678;DHT22;27364;49.026;8.712;2022-07-23T05:20:05;21.30;99.90
41678;DHT22;27364;49.026;8.712;2022-07-23T05:22:31;21.30;99.90
41678;DHT22;27364;49.026;8.712;2022-07-23T05:24:57;21.20;99.90
41678;DHT22;27364;49.026;8.712;2022-07-23T05:27:22;21.20;99.90
41678;DHT22;27364;49.026;8.712;2022-07-23T05:29:48;21.20;99.90
41678;DHT22;27364;49.026;8.712;2022-07-23T05:32:13;21.20;99.90
41678;DHT22;27364;49.026;8.712;2022-07-23T05:34:39;21.20;99.90
41678;DHT22;27364;49.026;8.712;2022-07-23T05:37:05;21.20;99.90
41678;DHT22;27364;49.026;8.712;2022-07-23T05:39:31;21.20;99.90
41678;DHT22;27364;49.026;8.712;2022-07-23T05:41:57;21.20;99.90
41678;DHT22;27364;49.026;8.712;2022-07-23T05:44:23;21.10;99.90
41678;DHT22;27364;49.026;8.712;2022-07-23T05:46:49;21.20;99.90
41678;DHT22;27364;49.026;8.712;2022-07-23T05:49:14;21.10;99.90
41678;DHT22;27364;49.026;8.712;2022-07-23T05:51:40;21.10;99.90
41678;DHT22;27364;49.026;8.712;2022-07-23T05:54:05;21.10;99.90
41678;DHT22;27364;49.026;8.712;2022-07-23T05:56:31;21.10;99.90
41678;DHT22;27364;49.026;8.712;2022-07-23T05:58:57;21.10;99.90
41678;DHT22;27364;49.026;8.712;2022-07-23T06:01:22;21.10;99.90
41678;DHT22;27364;49.026;8.712;2022-07-23T06:03:48;21.10;99.90
41678;DHT22;27364;49.026;8.712;2022-07-23T06:06:14;21.10;99.90
41678;DHT22;27364;49.026;8.712;2022-07-23T06:08:39;21.10;99.90
41678;DHT22;27364;49.026;8.712;2022-07-23T06:11:05;21.10;99.90
41678;DHT22;27364;49.026;8.712;2022-07-23T06:13:30;21.10;99.90
41678;DHT22;27364;49.026;8.712;2022-07-23T06:15:56;21.10;99.90
41678;DHT22;27364;49.026;8.712;2022-07-23T06:18:21;21.00;99.90
41678;DHT22;27364;49.026;8.712;2022-07-23T06:20:47;21.00;99.90
41678;DHT22;27364;49.026;8.712;2022-07-23T06:23:12;20.90;99.90
41678;DHT22;27364;49.026;8.712;2022-07-23T06:25:38;20.90;99.90
41678;DHT22;27364;49.026;8.712;2022-07-23T06:28:04;20.90;99.90
41678;DHT22;27364;49.026;8.712;2022-07-23T06:30:29;21.00;99.90
41678;DHT22;27364;49.026;8.712;2022-07-23T06:32:55;21.00;99.90
41678;DHT22;27364;49.026;8.712;2022-07-23T06:35:20;21.00;99.90
41678;DHT22;27364;49.026;8.712;2022-07-23T06:37:46;21.00;99.90
41678;DHT22;27364;49.026;8.712;2022-07-23T06:40:12;20.90;99.90
41678;DHT22;27364;49.026;8.712;2022-07-23T06:42:38;20.90;99.90
41678;DHT22;27364;49.026;8.712;2022-07-23T06:45:07;20.90;99.90
41678;DHT22;27364;49.026;8.712;2022-07-23T06:47:33;20.90;99.90
41678;DHT22;27364;49.026;8.712;2022-07-23T06:49:59;20.80;99.90
41678;DHT22;27364;49.026;8.712;2022-07-23T06:52:25;20.70;99.90
41678;DHT22;27364;49.026;8.712;2022-07-23T06:54:51;20.60;99.90
41678;DHT22;27364;49.026;8.712;2022-07-23T06:57:17;20.60;99.90
41678;DHT22;27364;49.026;8.712;2022-07-23T06:59:42;20.50;99.90
41678;DHT22;27364;49.026;8.712;2022-07-23T07:02:08;20.50;99.90
41678;DHT22;27364;49.026;8.712;2022-07-23T07:04:34;20.50;99.90
41678;DHT22;27364;49.026;8.712;2022-07-23T07:07:00;20.50;99.90
41678;DHT22;27364;49.026;8.712;2022-07-23T07:09:25;20.50;99.90
41678;DHT22;27364;49.026;8.712;2022-07-23T07:11:51;20.60;99.90
41678;DHT22;27364;49.026;8.712;2022-07-23T07:14:16;20.60;99.90
41678;DHT22;27364;49.026;8.712;2022-07-23T07:16:42;20.60;99.90
41678;DHT22;27364;49.026;8.712;2022-07-23T07:19:08;20.60;99.90
41678;DHT22;27364;49.026;8.712;2022-07-23T07:21:33;20.50;99.90
41678;DHT22;27364;49.026;8.712;2022-07-23T07:23:59;20.50;99.90
41678;DHT22;27364;49.026;8.712;2022-07-23T07:26:25;20.50;99.90
41678;DHT22;27364;49.026;8.712;2022-07-23T07:28:51;20.60;99.90
41678;DHT22;27364;49.026;8.712;2022-07-23T07:31:16;20.60;99.90
41678;DHT22;27364;49.026;8.712;2022-07-23T07:33:42;20.50;99.90
41678;DHT22;27364;49.026;8.712;2022-07-23T07:36:08;20.50;99.90
41678;DHT22;27364;49.026;8.712;2022-07-23T07:38:33;20.50;99.90
41678;DHT22;27364;49.026;8.712;2022-07-23T07:40:59;20.60;99.90
41678;DHT22;27364;49.026;8.712;2022-07-23T07:43:25;20.60;99.90
41678;DHT22;27364;49.026;8.712;2022-07-23T07:45:50;20.60;99.90
41678;DHT22;27364;49.026;8.712;2022-07-23T07:48:16;20.60;99.90
41678;DHT22;27364;49.026;8.712;2022-07-23T07:50:41;20.60;99.90
41678;DHT22;27364;49.026;8.712;2022-07-23T07:53:07;20.70;99.90
41678;DHT22;27364;49.026;8.712;2022-07-23T07:55:34;20.80;99.90
41678;DHT22;27364;49.026;8.712;2022-07-23T07:57:59;20.80;99.90
41678;DHT22;27364;49.026;8.712;2022-07-23T08:00:25;20.80;99.90
41678;DHT22;27364;49.026;8.712;2022-07-23T08:02:52;20.90;99.90
41678;DHT22;27364;49.026;8.712;2022-07-23T08:05:23;20.90;99.90
41678;DHT22;27364;49.026;8.712;2022-07-23T08:07:49;20.90;99.90
41678;DHT22;27364;49.026;8.712;2022-07-23T08:10:15;20.90;99.90
41678;DHT22;27364;49.026;8.712;2022-07-23T08:12:50;21.00;99.90
41678;DHT22;27364;49.026;8.712;2022-07-23T08:15:18;21.10;99.90
41678;DHT22;27364;49.026;8.712;2022-07-23T08:17:44;21.10;99.90
41678;DHT22;27364;49.026;8.712;2022-07-23T08:20:12;21.10;99.90
41678;DHT22;27364;49.026;8.712;2022-07-23T08:22:51;21.10;99.90
41678;DHT22;27364;49.026;8.712;2022-07-23T08:25:26;21.10;99.90
41678;DHT22;27364;49.026;8.712;2022-07-23T08:27:52;21.10;99.90
41678;DHT22;27364;49.026;8.712;2022-07-23T08:30:19;21.10;99.90
41678;DHT22;27364;49.026;8.712;2022-07-23T08:32:50;21.10;99.90
41678;DHT22;27364;49.026;8.712;2022-07-23T08:35:17;21.20;99.90
41678;DHT22;27364;49.026;8.712;2022-07-23T08:37:42;21.30;99.90
41678;DHT22;27364;49.026;8.712;2022-07-23T08:40:09;21.40;99.90
41678;DHT22;27364;49.026;8.712;2022-07-23T08:42:35;21.50;99.90
41678;DHT22;27364;49.026;8.712;2022-07-23T08:45:03;21.60;99.90
41678;DHT22;27364;49.026;8.712;2022-07-23T08:47:29;21.80;99.90
41678;DHT22;27364;49.026;8.712;2022-07-23T08:49:56;22.00;99.90
41678;DHT22;27364;49.026;8.712;2022-07-23T08:52:24;22.10;99.90
41678;DHT22;27364;49.026;8.712;2022-07-23T08:54:50;22.30;99.90
41678;DHT22;27364;49.026;8.712;2022-07-23T08:57:16;22.30;99.90
41678;DHT22;27364;49.026;8.712;2022-07-23T08:59:42;22.50;99.90
41678;DHT22;27364;49.026;8.712;2022-07-23T09:02:07;22.60;99.90
41678;DHT22;27364;49.026;8.712;2022-07-23T09:04:34;22.70;99.90
41678;DHT22;27364;49.026;8.712;2022-07-23T09:07:01;22.80;99.90
41678;DHT22;27364;49.026;8.712;2022-07-23T09:09:27;22.90;99.90
41678;DHT22;27364;49.026;8.712;2022-07-23T09:12:09;22.90;99.90
41678;DHT22;27364;49.026;8.712;2022-07-23T09:14:45;23.00;99.90
41678;DHT22;27364;49.026;8.712;2022-07-23T09:17:16;23.10;99.90
41678;DHT22;27364;49.026;8.712;2022-07-23T09:19:46;23.20;99.90
41678;DHT22;27364;49.026;8.712;2022-07-23T09:22:24;23.40;99.90
41678;DHT22;27364;49.026;8.712;2022-07-23T09:25:04;23.40;99.90
41678;DHT22;27364;49.026;8.712;2022-07-23T09:27:54;23.50;99.90
41678;DHT22;27364;49.026;8.712;2022-07-23T09:30:22;23.50;99.90
41678;DHT22;27364;49.026;8.712;2022-07-23T09:33:08;23.60;99.90
41678;DHT22;27364;49.026;8.712;2022-07-23T09:35:44;23.80;99.90
41678;DHT22;27364;49.026;8.712;2022-07-23T09:38:09;23.90;99.90
41678;DHT22;27364;49.026;8.712;2022-07-23T09:40:35;24.00;99.90
41678;DHT22;27364;49.026;8.712;2022-07-23T09:43:01;24.10;99.90
41678;DHT22;27364;49.026;8.712;2022-07-23T09:45:26;24.10;99.90
41678;DHT22;27364;49.026;8.712;2022-07-23T09:48:13;24.20;99.90
41678;DHT22;27364;49.026;8.712;2022-07-23T09:50:41;24.50;99.90
41678;DHT22;27364;49.026;8.712;2022-07-23T09:53:07;24.60;99.90
41678;DHT22;27364;49.026;8.712;2022-07-23T09:55:35;24.70;99.90
41678;DHT22;27364;49.026;8.712;2022-07-23T09:58:08;24.70;99.90
41678;DHT22;27364;49.026;8.712;2022-07-23T10:00:37;24.70;99.90
41678;DHT22;27364;49.026;8.712;2022-07-23T10:03:06;24.70;99.90
41678;DHT22;27364;49.026;8.712;2022-07-23T10:05:33;24.80;99.90
41678;DHT22;27364;49.026;8.712;2022-07-23T10:08:02;25.00;99.90
41678;DHT22;27364;49.026;8.712;2022-07-23T10:10:27;25.00;99.90
41678;DHT22;27364;49.026;8.712;2022-07-23T10:12:56;25.20;99.90
41678;DHT22;27364;49.026;8.712;2022-07-23T10:15:41;25.20;99.90
41678;DHT22;27364;49.026;8.712;2022-07-23T10:18:10;25.30;99.90
41678;DHT22;27364;49.026;8.712;2022-07-23T10:20:36;25.30;99.90
41678;DHT22;27364;49.026;8.712;2022-07-23T10:23:15;25.40;99.90
41678;DHT22;27364;49.026;8.712;2022-07-23T10:25:55;25.40;99.90
41678;DHT22;27364;49.026;8.712;2022-07-23T10:31:14;25.40;99.90
41678;DHT22;27364;49.026;8.712;2022-07-23T10:33:51;25.40;99.90
41678;DHT22;27364;49.026;8.712;2022-07-23T10:36:27;25.40;99.90
41678;DHT22;27364;49.026;8.712;2022-07-23T10:39:14;25.40;99.90
41678;DHT22;27364;49.026;8.712;2022-07-23T10:41:41;25.40;99.90
41678;DHT22;27364;49.026;8.712;2022-07-23T10:47:01;25.50;99.90
41678;DHT22;27364;49.026;8.712;2022-07-23T10:49:46;25.70;99.90
41678;DHT22;27364;49.026;8.712;2022-07-23T10:57:08;26.00;99.90
41678;DHT22;27364;49.026;8.712;2022-07-23T11:02:31;26.00;99.90
41678;DHT22;27364;49.026;8.712;2022-07-23T11:05:12;26.00;99.90
41678;DHT22;27364;49.026;8.712;2022-07-23T11:10:36;26.30;98.60
41678;DHT22;27364;49.026;8.712;2022-07-23T11:24:27;26.20;99.90
41678;DHT22;27364;49.026;8.712;2022-07-23T11:26:58;26.30;99.90
41678;DHT22;27364;49.026;8.712;2022-07-23T11:34:42;26.60;97.60
41678;DHT22;27364;49.026;8.712;2022-07-23T11:37:10;26.70;97.00
41678;DHT22;27364;49.026;8.712;2022-07-23T11:39:36;26.70;96.70
41678;DHT22;27364;49.026;8.712;2022-07-23T11:42:04;26.70;96.20
41678;DHT22;27364;49.026;8.712;2022-07-23T11:44:37;26.70;97.50
41678;DHT22;27364;49.026;8.712;2022-07-23T11:47:05;26.80;96.50
41678;DHT22;27364;49.026;8.712;2022-07-23T11:49:31;26.80;95.10
41678;DHT22;27364;49.026;8.712;2022-07-23T11:52:11;26.80;95.20
41678;DHT22;27364;49.026;8.712;2022-07-23T11:54:48;27.00;93.70
41678;DHT22;27364;49.026;8.712;2022-07-23T11:57:15;27.00;92.00
41678;DHT22;27364;49.026;8.712;2022-07-23T11:59:42;27.00;91.30
41678;DHT22;27364;49.026;8.712;2022-07-23T12:02:08;27.10;91.80
41678;DHT22;27364;49.026;8.712;2022-07-23T12:04:42;27.00;91.70
41678;DHT22;27364;49.026;8.712;2022-07-23T12:07:34;27.20;90.80
41678;DHT22;27364;49.026;8.712;2022-07-23T12:10:13;27.30;84.20
41678;DHT22;27364;49.026;8.712;2022-07-23T12:12:47;27.30;90.30
41678;DHT22;27364;49.026;8.712;2022-07-23T12:15:16;27.40;88.90
41678;DHT22;27364;49.026;8.712;2022-07-23T12:17:44;27.50;88.90
41678;DHT22;27364;49.026;8.712;2022-07-23T12:20:14;27.50;90.10
41678;DHT22;27364;49.026;8.712;2022-07-23T12:22:51;27.50;89.40
41678;DHT22;27364;49.026;8.712;2022-07-23T12:25:20;27.50;86.80
41678;DHT22;27364;49.026;8.712;2022-07-23T12:27:57;27.70;90.70
41678;DHT22;27364;49.026;8.712;2022-07-23T12:30:29;27.90;84.60
41678;DHT22;27364;49.026;8.712;2022-07-23T12:32:57;28.00;90.40
41678;DHT22;27364;49.026;8.712;2022-07-23T12:35:31;27.90;89.00
41678;DHT22;27364;49.026;8.712;2022-07-23T12:38:02;27.80;86.00
41678;DHT22;27364;49.026;8.712;2022-07-23T12:40:37;27.60;87.90
41678;DHT22;27364;49.026;8.712;2022-07-23T12:43:09;27.60;87.00
41678;DHT22;27364;49.026;8.712;2022-07-23T12:46:11;27.40;85.90
41678;DHT22;27364;49.026;8.712;2022-07-23T12:48:57;27.20;89.10
41678;DHT22;27364;49.026;8.712;2022-07-23T12:51:28;27.00;90.00
41678;DHT22;27364;49.026;8.712;2022-07-23T12:54:06;27.20;90.00
41678;DHT22;27364;49.026;8.712;2022-07-23T12:56:36;27.40;91.40
41678;DHT22;27364;49.026;8.712;2022-07-23T12:59:07;27.50;90.60
41678;DHT22;27364;49.026;8.712;2022-07-23T13:01:40;27.70;87.70
41678;DHT22;27364;49.026;8.712;2022-07-23T13:04:17;27.80;87.00
41678;DHT22;27364;49.026;8.712;2022-07-23T13:06:47;28.10;88.90
41678;DHT22;27364;49.026;8.712;2022-07-23T13:09:22;28.50;86.10
41678;DHT22;27364;49.026;8.712;2022-07-23T13:11:49;28.30;83.60
41678;DHT22;27364;49.026;8.712;2022-07-23T13:14:16;28.10;82.10
41678;DHT22;27364;49.026;8.712;2022-07-23T13:16:42;28.00;83.70
41678;DHT22;27364;49.026;8.712;2022-07-23T13:19:08;27.90;81.80
41678;DHT22;27364;49.026;8.712;2022-07-23T13:21:34;28.00;84.90
41678;DHT22;27364;49.026;8.712;2022-07-23T13:23:59;28.20;85.60
41678;DHT22;27364;49.026;8.712;2022-07-23T13:26:26;28.20;85.40
41678;DHT22;27364;49.026;8.712;2022-07-23T13:28:52;28.40;86.90
41678;DHT22;27364;49.026;8.712;2022-07-23T13:31:18;28.70;80.40
41678;DHT22;27364;49.026;8.712;2022-07-23T13:33:44;28.80;78.50
41678;DHT22;27364;49.026;8.712;2022-07-23T13:36:10;28.90;78.30
41678;DHT22;27364;49.026;8.712;2022-07-23T13:38:36;29.00;78.30
41678;DHT22;27364;49.026;8.712;2022-07-23T13:41:03;29.20;80.40
41678;DHT22;27364;49.026;8.712;2022-07-23T13:43:29;29.20;78.40
41678;DHT22;27364;49.026;8.712;2022-07-23T13:45:55;29.10;80.80
41678;DHT22;27364;49.026;8.712;2022-07-23T13:48:21;29.10;74.60
41678;DHT22;27364;49.026;8.712;2022-07-23T13:50:47;28.90;76.10
41678;DHT22;27364;49.026;8.712;2022-07-23T13:53:19;28.70;77.80
41678;DHT22;27364;49.026;8.712;2022-07-23T13:55:46;28.50;77.10
41678;DHT22;27364;49.026;8.712;2022-07-23T13:58:12;28.40;76.70
41678;DHT22;27364;49.026;8.712;2022-07-23T14:00:41;28.30;77.50
41678;DHT22;27364;49.026;8.712;2022-07-23T14:03:07;28.30;77.40
41678;DHT22;27364;49.026;8.712;2022-07-23T14:05:33;28.40;77.90
41678;DHT22;27364;49.026;8.712;2022-07-23T14:07:58;28.50;77.70
41678;DHT22;27364;49.026;8.712;2022-07-23T14:10:24;28.60;77.30
41678;DHT22;27364;49.026;8.712;2022-07-23T14:12:51;28.80;75.40
41678;DHT22;27364;49.026;8.712;2022-07-23T14:15:18;28.70;75.70
41678;DHT22;27364;49.026;8.712;2022-07-23T14:17:45;28.70;78.50
41678;DHT22;27364;49.026;8.712;2022-07-23T14:20:12;28.80;80.10
41678;DHT22;27364;49.026;8.712;2022-07-23T14:22:38;28.90;76.50
41678;DHT22;27364;49.026;8.712;2022-07-23T14:25:05;28.90;76.50
41678;DHT22;27364;49.026;8.712;2022-07-23T14:27:31;28.80;74.00
41678;DHT22;27364;49.026;8.712;2022-07-23T14:29:58;28.80;73.40
41678;DHT22;27364;49.026;8.712;2022-07-23T14:32:24;28.90;73.50
41678;DHT22;27364;49.026;8.712;2022-07-23T14:34:50;28.80;74.60
41678;DHT22;27364;49.026;8.712;2022-07-23T14:37:16;28.80;76.80
41678;DHT22;27364;49.026;8.712;2022-07-23T14:39:43;28.80;73.60
41678;DHT22;27364;49.026;8.712;2022-07-23T14:42:09;28.60;72.90
41678;DHT22;27364;49.026;8.712;2022-07-23T14:44:35;28.50;73.00
41678;DHT22;27364;49.026;8.712;2022-07-23T14:47:03;28.40;74.80
41678;DHT22;27364;49.026;8.712;2022-07-23T14:49:30;28.40;75.20
41678;DHT22;27364;49.026;8.712;2022-07-23T14:51:56;28.40;75.30
41678;DHT22;27364;49.026;8.712;2022-07-23T14:54:22;28.50;79.60
41678;DHT22;27364;49.026;8.712;2022-07-23T14:56:48;28.90;75.40
41678;DHT22;27364;49.026;8.712;2022-07-23T14:59:13;28.90;71.30
41678;DHT22;27364;49.026;8.712;2022-07-23T15:01:39;28.70;71.10
41678;DHT22;27364;49.026;8.712;2022-07-23T15:04:05;28.40;72.20
41678;DHT22;27364;49.026;8.712;2022-07-23T15:06:31;28.30;73.40
41678;DHT22;27364;49.026;8.712;2022-07-23T15:08:57;28.10;71.80
41678;DHT22;27364;49.026;8.712;2022-07-23T15:11:23;28.00;73.90
41678;DHT22;27364;49.026;8.712;2022-07-23T15:13:49;28.00;75.80
41678;DHT22;27364;49.026;8.712;2022-07-23T15:16:15;28.00;76.20
41678;DHT22;27364;49.026;8.712;2022-07-23T15:18:40;28.00;75.50
41678;DHT22;27364;49.026;8.712;2022-07-23T15:21:06;27.90;74.70
41678;DHT22;27364;49.026;8.712;2022-07-23T15:23:32;27.70;76.40
41678;DHT22;27364;49.026;8.712;2022-07-23T15:25:58;27.60;76.60
41678;DHT22;27364;49.026;8.712;2022-07-23T15:28:23;27.60;78.00
41678;DHT22;27364;49.026;8.712;2022-07-23T15:30:50;27.70;77.20
41678;DHT22;27364;49.026;8.712;2022-07-23T15:33:16;27.80;76.70
41678;DHT22;27364;49.026;8.712;2022-07-23T15:35:42;27.90;76.90
41678;DHT22;27364;49.026;8.712;2022-07-23T15:38:07;28.10;78.20
41678;DHT22;27364;49.026;8.712;2022-07-23T15:40:33;28.20;74.10
41678;DHT22;27364;49.026;8.712;2022-07-23T15:42:58;28.20;75.80
41678;DHT22;27364;49.026;8.712;2022-07-23T15:45:24;28.20;75.40
41678;DHT22;27364;49.026;8.712;2022-07-23T15:47:50;28.10;74.60
41678;DHT22;27364;49.026;8.712;2022-07-23T15:50:15;28.00;73.40
41678;DHT22;27364;49.026;8.712;2022-07-23T15:52:41;27.90;72.60
41678;DHT22;27364;49.026;8.712;2022-07-23T15:55:07;27.70;73.30
41678;DHT22;27364;49.026;8.712;2022-07-23T15:57:33;27.60;75.30
41678;DHT22;27364;49.026;8.712;2022-07-23T15:59:58;27.60;79.50
41678;DHT22;27364;49.026;8.712;2022-07-23T16:02:24;27.70;80.60
41678;DHT22;27364;49.026;8.712;2022-07-23T16:04:50;27.80;81.10